Time,TemperatureF,DewpointF,PressureIn,WindDirection,WindDirectionDegrees,WindSpeedMPH,WindSpeedGustMPH,Humidity,HourlyPrecipIn,Conditions,Clouds,dailyrainin,SoftwareType,DateUTC
2013-06-28 00:49:00,68.5,56.1,30.09,North,-999,-999.0,-999.0,64,-99.99,,,-99.99,Netatmo,2013-06-27 22:49:00,
2013-06-28 01:04:00,68.2,55.7,30.09,North,-999,-999.0,-999.0,64,-99.99,,,-99.99,Netatmo,2013-06-27 23:04:00,
2013-06-28 01:09:00,68.0,55.5,30.10,North,-999,-999.0,-999.0,64,-99.99,,,-99.99,Netatmo,2013-06-27 23:09:00,
2013-06-28 01:14:00,68.0,55.5,30.10,North,-999,-999.0,-999.0,64,-99.99,,,-99.99,Netatmo,2013-06-27 23:14:00,
2013-06-28 01:15:00,68.0,56.0,30.09,North,-999,-999.0,-999.0,65,-99.99,,,-99.99,Netatmo,2013-06-27 23:15:00,
2013-06-28 01:24:00,68.0,56.0,30.09,North,-999,-999.0,-999.0,65,-99.99,,,-99.99,Netatmo,2013-06-27 23:24:00,
2013-06-28 02:14:00,67.6,56.1,30.08,North,-999,-999.0,-999.0,66,-99.99,,,-99.99,Netatmo,2013-06-28 00:14:00,
2013-06-28 02:24:00,67.6,56.1,30.08,North,-999,-999.0,-999.0,66,-99.99,,,-99.99,Netatmo,2013-06-28 00:24:00,
2013-06-28 02:29:00,67.5,55.9,30.08,North,-999,-999.0,-999.0,66,-99.99,,,-99.99,Netatmo,2013-06-28 00:29:00,
2013-06-28 02:34:00,67.5,55.9,30.08,North,-999,-999.0,-999.0,66,-99.99,,,-99.99,Netatmo,2013-06-28 00:34:00,
2013-06-28 02:39:00,67.5,55.9,30.07,North,-999,-999.0,-999.0,66,-99.99,,,-99.99,Netatmo,2013-06-28 00:39:00,
2013-06-28 02:44:00,67.5,55.9,30.07,North,-999,-999.0,-999.0,66,-99.99,,,-99.99,Netatmo,2013-06-28 00:44:00,
2013-06-28 02:49:00,67.5,56.3,30.08,North,-999,-999.0,-999.0,67,-99.99,,,-99.99,Netatmo,2013-06-28 00:49:00,
2013-06-28 02:54:00,67.5,56.3,30.08,North,-999,-999.0,-999.0,67,-99.99,,,-99.99,Netatmo,2013-06-28 00:54:00,
2013-06-28 02:59:00,67.3,56.1,30.08,North,-999,-999.0,-999.0,67,-99.99,,,-99.99,Netatmo,2013-06-28 00:59:00,
2013-06-28 03:04:00,67.3,56.1,30.08,North,-999,-999.0,-999.0,67,-99.99,,,-99.99,Netatmo,2013-06-28 01:04:00,
2013-06-28 03:14:00,67.3,56.1,30.08,North,-999,-999.0,-999.0,67,-99.99,,,-99.99,Netatmo,2013-06-28 01:14:00,
2013-06-28 03:19:00,67.1,56.4,30.08,North,-999,-999.0,-999.0,68,-99.99,,,-99.99,Netatmo,2013-06-28 01:19:00,
2013-06-28 03:24:00,67.1,56.4,30.08,North,-999,-999.0,-999.0,68,-99.99,,,-99.99,Netatmo,2013-06-28 01:24:00,
2013-06-28 03:29:00,67.1,56.4,30.07,North,-999,-999.0,-999.0,68,-99.99,,,-99.99,Netatmo,2013-06-28 01:29:00,
2013-06-28 03:39:00,67.1,56.4,30.08,North,-999,-999.0,-999.0,68,-99.99,,,-99.99,Netatmo,2013-06-28 01:39:00,
2013-06-28 03:49:00,66.9,56.2,30.07,North,-999,-999.0,-999.0,68,-99.99,,,-99.99,Netatmo,2013-06-28 01:49:00,
2013-06-28 04:04:00,66.9,56.2,30.07,North,-999,-999.0,-999.0,68,-99.99,,,-99.99,Netatmo,2013-06-28 02:04:00,
2013-06-28 04:09:00,66.9,56.6,30.07,North,-999,-999.0,-999.0,69,-99.99,,,-99.99,Netatmo,2013-06-28 02:09:00,
2013-06-28 04:14:00,66.9,56.6,30.07,North,-999,-999.0,-999.0,69,-99.99,,,-99.99,Netatmo,2013-06-28 02:14:00,
2013-06-28 04:19:00,66.7,56.4,30.07,North,-999,-999.0,-999.0,69,-99.99,,,-99.99,Netatmo,2013-06-28 02:19:00,
2013-06-28 04:24:00,66.7,56.4,30.07,North,-999,-999.0,-999.0,69,-99.99,,,-99.99,Netatmo,2013-06-28 02:24:00,
2013-06-28 04:29:00,66.4,56.5,30.08,North,-999,-999.0,-999.0,70,-99.99,,,-99.99,Netatmo,2013-06-28 02:29:00,
2013-06-28 04:34:00,66.4,56.5,30.08,North,-999,-999.0,-999.0,70,-99.99,,,-99.99,Netatmo,2013-06-28 02:34:00,
2013-06-28 04:44:00,66.2,56.3,30.07,North,-999,-999.0,-999.0,70,-99.99,,,-99.99,Netatmo,2013-06-28 02:44:00,
2013-06-28 04:47:00,66.0,56.1,30.07,North,-999,-999.0,-999.0,70,-99.99,,,-99.99,Netatmo,2013-06-28 02:47:00,
2013-06-28 04:49:00,66.0,56.1,30.07,North,-999,-999.0,-999.0,70,-99.99,,,-99.99,Netatmo,2013-06-28 02:49:00,
2013-06-28 04:54:00,66.0,56.1,30.07,North,-999,-999.0,-999.0,70,-99.99,,,-99.99,Netatmo,2013-06-28 02:54:00,
2013-06-28 06:04:00,65.3,56.6,30.07,North,-999,-999.0,-999.0,73,-99.99,,,-99.99,Netatmo,2013-06-28 04:04:00,
2013-06-28 06:09:00,65.3,56.6,30.07,North,-999,-999.0,-999.0,73,-99.99,,,-99.99,Netatmo,2013-06-28 04:09:00,
2013-06-28 06:14:00,65.3,56.6,30.07,North,-999,-999.0,-999.0,73,-99.99,,,-99.99,Netatmo,2013-06-28 04:14:00,
2013-06-28 06:19:00,65.5,56.7,30.06,North,-999,-999.0,-999.0,73,-99.99,,,-99.99,Netatmo,2013-06-28 04:19:00,
2013-06-28 06:24:00,65.5,56.7,30.06,North,-999,-999.0,-999.0,73,-99.99,,,-99.99,Netatmo,2013-06-28 04:24:00,
2013-06-28 07:28:00,68.2,59.3,30.07,North,-999,-999.0,-999.0,73,-99.99,,,-99.99,Netatmo,2013-06-28 05:28:00,
2013-06-28 07:29:00,68.2,59.3,30.07,North,-999,-999.0,-999.0,73,-99.99,,,-99.99,Netatmo,2013-06-28 05:29:00,
2013-06-28 07:34:00,68.2,59.3,30.07,North,-999,-999.0,-999.0,73,-99.99,,,-99.99,Netatmo,2013-06-28 05:34:00,
2013-06-28 07:44:00,68.5,59.7,30.07,North,-999,-999.0,-999.0,73,-99.99,,,-99.99,Netatmo,2013-06-28 05:44:00,
2013-06-28 07:49:00,68.9,60.0,30.07,North,-999,-999.0,-999.0,73,-99.99,,,-99.99,Netatmo,2013-06-28 05:49:00,
2013-06-28 07:54:00,68.9,60.0,30.07,North,-999,-999.0,-999.0,73,-99.99,,,-99.99,Netatmo,2013-06-28 05:54:00,
2013-06-28 07:58:00,69.3,60.4,30.07,North,-999,-999.0,-999.0,73,-99.99,,,-99.99,Netatmo,2013-06-28 05:58:00,
2013-06-28 07:59:00,69.3,60.4,30.07,North,-999,-999.0,-999.0,73,-99.99,,,-99.99,Netatmo,2013-06-28 05:59:00,
2013-06-28 08:04:00,69.3,60.4,30.07,North,-999,-999.0,-999.0,73,-99.99,,,-99.99,Netatmo,2013-06-28 06:04:00,
2013-06-28 08:08:00,69.4,60.6,30.07,North,-999,-999.0,-999.0,73,-99.99,,,-99.99,Netatmo,2013-06-28 06:08:00,
2013-06-28 08:14:00,69.4,60.6,30.07,North,-999,-999.0,-999.0,73,-99.99,,,-99.99,Netatmo,2013-06-28 06:14:00,
2013-06-28 08:24:00,69.6,60.4,30.07,North,-999,-999.0,-999.0,72,-99.99,,,-99.99,Netatmo,2013-06-28 06:24:00,
2013-06-28 08:28:00,69.6,60.4,30.07,North,-999,-999.0,-999.0,72,-99.99,,,-99.99,Netatmo,2013-06-28 06:28:00,
2013-06-28 08:34:00,69.6,60.4,30.07,North,-999,-999.0,-999.0,72,-99.99,,,-99.99,Netatmo,2013-06-28 06:34:00,
2013-06-28 08:54:00,70.2,60.9,30.07,North,-999,-999.0,-999.0,72,-99.99,,,-99.99,Netatmo,2013-06-28 06:54:00,
2013-06-28 09:02:00,70.2,60.9,30.07,North,-999,-999.0,-999.0,72,-99.99,,,-99.99,Netatmo,2013-06-28 07:02:00,
2013-06-28 09:03:00,70.5,61.2,30.08,North,-999,-999.0,-999.0,72,-99.99,,,-99.99,Netatmo,2013-06-28 07:03:00,
2013-06-28 09:12:00,70.5,61.2,30.08,North,-999,-999.0,-999.0,72,-99.99,,,-99.99,Netatmo,2013-06-28 07:12:00,
2013-06-28 09:22:00,70.5,60.8,30.07,North,-999,-999.0,-999.0,71,-99.99,,,-99.99,Netatmo,2013-06-28 07:22:00,
2013-06-28 09:27:00,70.7,61.0,30.07,North,-999,-999.0,-999.0,71,-99.99,,,-99.99,Netatmo,2013-06-28 07:27:00,
2013-06-28 17:37:00,76.6,61.4,30.03,North,-999,-999.0,-999.0,59,-99.99,,,-99.99,Netatmo,2013-06-28 15:37:00,
2013-06-28 17:46:00,76.6,61.4,30.03,North,-999,-999.0,-999.0,59,-99.99,,,-99.99,Netatmo,2013-06-28 15:46:00,
2013-06-28 18:11:00,76.3,61.6,30.02,North,-999,-999.0,-999.0,60,-99.99,,,-99.99,Netatmo,2013-06-28 16:11:00,
2013-06-28 18:36:00,76.3,61.6,30.02,North,-999,-999.0,-999.0,60,-99.99,,,-99.99,Netatmo,2013-06-28 16:36:00,
2013-06-28 18:41:00,76.3,61.6,30.02,North,-999,-999.0,-999.0,60,-99.99,,,-99.99,Netatmo,2013-06-28 16:41:00,
2013-06-28 18:42:00,76.5,61.8,30.02,North,-999,-999.0,-999.0,60,-99.99,,,-99.99,Netatmo,2013-06-28 16:42:00,
2013-06-28 18:46:00,76.5,61.8,30.02,North,-999,-999.0,-999.0,60,-99.99,,,-99.99,Netatmo,2013-06-28 16:46:00,
2013-06-28 18:51:00,76.5,61.8,30.02,North,-999,-999.0,-999.0,60,-99.99,,,-99.99,Netatmo,2013-06-28 16:51:00,